Last 24 Hours

Modesto Jr College

15 Minute Data | America/Los_Angeles
as of 8/9/22 6:47 AM PDT
Date & Time Temp (°F) RH (%) Dew Pt (°F) Wind Spd (mph) Wind Dir (°) Wind Gust (mph) Latest Rain (In) Daily Rain (In) Daily Min Temp (°F) Daily Max Temp (°F)
8/9/22 - 0645 61.6 77 54.4 5.1 N | 5 9.6 0.00 0.00 61.4 66.7
8/9/22 - 0630 61.6 76 54.2 4.5 N | 359 7.9 0.00 0.00 61.4 66.7
8/9/22 - 0615 61.9 75 53.9 4.2 N | 357 7.0 0.00 0.00 61.6 66.7
8/9/22 - 0600 61.9 75 54.0 4.3 N | 356 8.1 0.00 0.00 61.7 66.7
8/9/22 - 0545 62.0 76 54.2 4.0 N | 358 6.8 0.00 0.00 61.7 66.7
8/9/22 - 0530 62.3 75 54.2 3.5 N | 356 7.7 0.00 0.00 62.0 66.7
8/9/22 - 0515 62.5 74 54.1 4.6 NNW | 340 8.1 0.00 0.00 62.3 66.7
8/9/22 - 0500 62.8 74 54.3 5.0 NNW | 328 9.0 0.00 0.00 62.4 66.7
8/9/22 - 0445 63.1 73 54.5 4.8 NNW | 331 8.1 0.00 0.00 62.8 66.7
8/9/22 - 0430 63.5 73 54.6 5.0 NNW | 340 10.1 0.00 0.00 63.2 66.7
8/9/22 - 0415 63.6 72 54.6 5.0 NNW | 340 9.6 0.00 0.00 63.2 66.7
8/9/22 - 0400 63.6 74 55.0 4.6 N | 350 9.6 0.00 0.00 63.2 66.7
8/9/22 - 0345 63.7 74 55.2 4.4 N | 353 7.7 0.00 0.00 63.4 66.7
8/9/22 - 0330 64.0 73 55.1 4.0 N | 356 7.5 0.00 0.00 63.7 66.7
8/9/22 - 0315 64.1 73 55.2 4.3 N | 350 9.4 0.00 0.00 63.9 66.7
8/9/22 - 0300 64.4 73 55.6 4.5 NNW | 346 8.3 0.00 0.00 64.2 66.7
8/9/22 - 0245 64.6 73 55.7 4.2 N | 2 8.1 0.00 0.00 64.3 66.7
8/9/22 - 0230 64.7 73 55.9 4.5 N | 356 8.3 0.00 0.00 64.5 66.7
8/9/22 - 0215 65.2 70 55.2 3.8 N | 4 7.2 0.00 0.00 64.8 66.7
8/9/22 - 0200 65.6 66 54.0 4.7 N | 358 9.2 0.00 0.00 65.4 66.7
8/9/22 - 0145 66.0 64 53.7 4.3 N | 350 9.0 0.00 0.00 65.6 66.7
8/9/22 - 0130 66.3 63 53.3 5.1 N | 354 9.6 0.00 0.00 66.0 66.7
8/9/22 - 0115 66.4 62 53.1 5.2 N | 352 9.9 0.00 0.00 66.2 66.7
8/9/22 - 0100 66.3 62 53.2 4.9 N | 351 9.2 0.00 0.00 59.4 88.8
8/9/22 - 0045 66.3 63 53.5 4.6 N | 354 8.6 0.00 0.00 59.4 88.8
8/9/22 - 0030 66.6 63 53.8 4.7 N | 352 9.0 0.00 0.00 59.4 88.8
8/9/22 - 0015 67.1 62 53.7 5.0 N | 353 11.4 0.00 0.00 59.4 88.8
8/9/22 - 0000 67.6 61 53.5 4.8 NNW | 347 9.2 0.00 0.00 59.4 88.8
8/8/22 - 2345 68.2 59 53.6 4.5 NNW | 343 9.0 0.00 0.00 59.4 88.8
8/8/22 - 2330 69.0 57 53.4 4.5 NNW | 345 9.2 0.00 0.00 59.4 88.8
8/8/22 - 2315 70.0 55 52.9 5.2 NNW | 344 9.6 0.00 0.00 59.4 88.8
8/8/22 - 2300 71.0 52 52.5 4.8 NNW | 345 8.8 0.00 0.00 59.4 88.8
8/8/22 - 2245 71.7 50 52.1 4.7 N | 351 9.0 0.00 0.00 59.4 88.8
8/8/22 - 2230 72.1 49 51.7 4.5 NNW | 338 8.8 0.00 0.00 59.4 88.8
8/8/22 - 2215 72.8 46 51.0 5.0 NNW | 341 9.0 0.00 0.00 59.4 88.8
8/8/22 - 2200 73.2 44 49.8 4.4 NNW | 336 9.2 0.00 0.00 59.4 88.8
8/8/22 - 2145 73.6 42 49.1 5.0 NW | 326 10.1 0.00 0.00 59.4 88.8
8/8/22 - 2130 74.0 40 48.2 4.4 NW | 325 8.8 0.00 0.00 59.4 88.8
8/8/22 - 2115 74.7 39 48.3 6.2 NW | 315 11.4 0.00 0.00 59.4 88.8
8/8/22 - 2100 75.0 39 48.7 5.8 NW | 320 9.4 0.00 0.00 59.4 88.8
8/8/22 - 2045 75.7 40 49.7 5.1 NW | 317 11.8 0.00 0.00 59.4 88.8
8/8/22 - 2030 76.2 41 50.5 4.9 NW | 318 9.9 0.00 0.00 59.4 88.8
8/8/22 - 2015 77.2 39 50.6 6.0 NW | 313 11.0 0.00 0.00 59.4 88.8
8/8/22 - 2000 78.2 38 50.8 6.3 NW | 311 11.8 0.00 0.00 59.4 88.8
8/8/22 - 1945 79.3 38 51.3 6.0 NW | 312 11.6 0.00 0.00 59.4 88.8
8/8/22 - 1930 80.0 36 50.6 6.8 NW | 306 13.2 0.00 0.00 59.4 88.8
8/8/22 - 1915 81.0 33 49.0 6.7 WNW | 303 13.2 0.00 0.00 59.4 88.8
8/8/22 - 1900 82.4 32 49.6 7.9 WNW | 297 14.7 0.00 0.00 59.4 88.8
8/8/22 - 1845 83.9 33 52.1 8.0 WNW | 292 14.7 0.00 0.00 59.4 88.8
8/8/22 - 1830 85.1 34 53.5 8.2 WNW | 284 15.1 0.00 0.00 59.4 88.8
8/8/22 - 1815 85.9 34 54.2 7.3 WNW | 290 13.8 0.00 0.00 59.4 88.8
8/8/22 - 1800 86.6 33 54.2 7.4 WNW | 287 15.6 0.00 0.00 59.4 88.8
8/8/22 - 1745 87.2 33 54.8 8.3 WNW | 290 14.5 0.00 0.00 59.4 88.8
8/8/22 - 1730 87.9 35 57.0 6.5 WNW | 289 12.3 0.00 0.00 59.4 88.8
8/8/22 - 1715 88.1 35 56.9 7.1 WNW | 299 13.2 0.00 0.00 59.4 88.8
8/8/22 - 1700 88.3 35 56.8 7.1 WNW | 294 13.2 0.00 0.00 59.4 88.8
8/8/22 - 1645 88.4 35 57.4 6.4 WNW | 295 12.5 0.00 0.00 59.4 88.8
8/8/22 - 1630 87.7 36 57.2 6.3 NW | 326 11.6 0.00 0.00 59.4 88.3
8/8/22 - 1615 87.4 36 57.3 6.2 NNW | 332 12.9 0.00 0.00 59.4 87.8
8/8/22 - 1600 86.9 36 56.9 7.0 NNW | 332 11.8 0.00 0.00 59.4 87.2
8/8/22 - 1545 86.7 37 57.7 6.9 NNW | 336 12.1 0.00 0.00 59.4 87.1
8/8/22 - 1530 86.6 39 58.4 6.0 NNW | 337 11.6 0.00 0.00 59.4 87.1
8/8/22 - 1515 86.5 37 57.5 6.8 NNW | 336 14.5 0.00 0.00 59.4 86.9
8/8/22 - 1500 86.3 37 57.2 5.6 NNW | 335 10.5 0.00 0.00 59.4 86.8
8/8/22 - 1445 85.9 39 58.0 5.7 NNW | 335 13.6 0.00 0.00 59.4 86.5
8/8/22 - 1430 85.3 39 57.7 5.6 NNW | 333 11.4 0.00 0.00 59.4 85.9
8/8/22 - 1415 84.8 41 58.8 4.4 NNW | 332 9.2 0.00 0.00 59.4 85.9
8/8/22 - 1400 84.0 41 57.8 4.8 NNW | 335 10.3 0.00 0.00 59.4 84.6
8/8/22 - 1345 83.6 43 58.4 5.7 NW | 323 12.1 0.00 0.00 59.4 84.2
8/8/22 - 1330 82.5 45 58.8 6.0 NNW | 342 12.3 0.00 0.00 59.4 83.2
8/8/22 - 1315 82.0 46 59.0 5.0 NNW | 338 10.5 0.00 0.00 59.4 82.5
8/8/22 - 1300 80.7 47 58.6 5.0 NNW | 332 10.5 0.00 0.00 59.4 81.5
8/8/22 - 1245 80.5 47 58.2 4.8 NNW | 329 10.3 0.00 0.00 59.4 81.1
8/8/22 - 1230 80.2 46 57.7 4.6 WNW | 302 10.5 0.00 0.00 59.4 80.9
8/8/22 - 1215 78.3 50 58.1 5.1 NW | 322 10.5 0.00 0.00 59.4 79.5
8/8/22 - 1200 76.6 52 57.8 4.9 NNW | 332 9.9 0.00 0.00 59.4 77.4
8/8/22 - 1145 74.9 55 57.5 3.9 NW | 316 7.2 0.00 0.00 59.4 76.0
8/8/22 - 1130 74.3 55 57.0 5.0 NNW | 333 8.6 0.00 0.00 59.4 74.7
8/8/22 - 1115 73.4 56 56.7 5.2 NNW | 337 10.5 0.00 0.00 59.4 74.0
8/8/22 - 1100 73.0 56 56.3 5.4 NNW | 336 9.9 0.00 0.00 59.4 73.4
8/8/22 - 1045 72.3 57 56.1 5.7 NNW | 340 9.9 0.00 0.00 59.4 73.0
8/8/22 - 1030 70.9 59 55.9 5.5 N | 349 9.6 0.00 0.00 59.4 71.5
8/8/22 - 1015 70.8 59 56.0 5.7 NNW | 348 10.5 0.00 0.00 59.4 71.2
8/8/22 - 1000 69.9 60 55.6 4.8 N | 350 8.8 0.00 0.00 59.4 70.9
8/8/22 - 0945 70.2 60 55.5 5.0 NNW | 342 9.2 0.00 0.00 59.4 70.9
8/8/22 - 0930 70.0 59 55.0 6.5 NNW | 332 12.5 0.00 0.00 59.4 70.5
8/8/22 - 0915 69.6 61 55.8 6.0 NNW | 336 10.5 0.00 0.00 59.4 70.5
8/8/22 - 0900 68.2 64 55.8 6.3 N | 352 11.4 0.00 0.00 59.4 68.7
8/8/22 - 0845 67.1 66 55.5 5.7 NNW | 344 11.4 0.00 0.00 59.4 68.0
8/8/22 - 0830 65.7 68 55.0 6.8 NNW | 339 11.8 0.00 0.00 59.4 66.1
8/8/22 - 0815 64.9 70 54.8 6.3 NNW | 346 12.7 0.00 0.00 59.4 65.6
8/8/22 - 0800 64.0 72 54.7 5.2 NNW | 340 9.4 0.00 0.00 59.4 64.6
8/8/22 - 0745 62.9 74 54.4 6.5 NNW | 344 13.6 0.00 0.00 59.4 64.0
8/8/22 - 0730 62.3 75 54.4 6.3 NNW | 336 12.5 0.00 0.00 59.4 64.0
8/8/22 - 0715 61.5 77 54.3 5.7 NNW | 338 10.7 0.00 0.00 59.4 64.0
8/8/22 - 0700 60.5 79 54.2 5.5 NNW | 344 11.2 0.00 0.00 59.4 64.0
8/8/22 - 0645 60.2 80 54.0 6.4 N | 351 10.1 0.00 0.00 59.4 64.0
Max 88.4 80 59.0 8.3 - 15.6 0.00 0.00 66.2 88.8
Avg 73.1 55 54.6 5.4 - 10.5 0.00 - - -
Min 60.2 32 48.2 3.5 - 6.8 0.00 0.00 59.4 64.0
Total - - - - - - 0.00 - - -